Terminal Aerodrome Forecast
Issued by NWS Milwaukee/Sullivan, WI

Home | Current Version | Previous Version | Text Only | Print | Product List | Glossary On
Versions: 1 2 3 4 5 6 7 8 9 10 11 12 13 14 15 16 17 18 19 20 21 22 23
000
FTUS43 KMKX 092346 CCA
TAFMSN
TAF COR
KMSN 092346Z 1000/1024 27005KT P6SM BKN035 BKN100
      TEMPO 1000/1003 SCT028
     FM101200 27004KT P6SM BKN080
     FM101900 24004KT P6SM BKN035
     FM102100 19004KT P6SM -SN OVC015=

USA.gov is the U.S. government's official web portal to all federal, state and local government web resources and services.